createdAt,value
2018-11-02T00:00:31.263Z,82.54
2018-11-02T00:01:31.279Z,82.54
2018-11-02T00:02:31.235Z,82.54
2018-11-02T00:03:31.259Z,82.12
2018-11-02T00:04:31.236Z,83.15
2018-11-02T00:05:31.201Z,83.05
2018-11-02T00:06:31.207Z,81.92
2018-11-02T00:07:31.178Z,81.81
2018-11-02T00:08:31.167Z,81.81
2018-11-02T00:09:31.159Z,81.92
2018-11-02T00:10:31.150Z,82.54
2018-11-02T00:11:31.175Z,82.12
2018-11-02T00:12:31.229Z,82.23
2018-11-02T00:13:31.123Z,81.92
2018-11-02T00:14:31.118Z,81.92
2018-11-02T00:15:31.103Z,82.12
2018-11-02T00:16:31.093Z,82.23
2018-11-02T00:17:31.083Z,82.84
2018-11-02T00:18:31.063Z,83.15
2018-11-02T00:19:31.046Z,83.05
2018-11-02T00:20:31.038Z,82.23
2018-11-02T00:21:31.073Z,82.84
2018-11-02T00:22:31.038Z,82.84
2018-11-02T00:23:31.005Z,82.95
2018-11-02T00:24:30.991Z,82.95
2018-11-02T00:25:31.001Z,82.84
2018-11-02T00:26:30.975Z,82.68
2018-11-02T00:27:30.992Z,82.78
2018-11-02T00:28:30.976Z,82.68
2018-11-02T00:29:30.941Z,82.95
2018-11-02T00:30:30.934Z,82.64
2018-11-02T00:31:30.920Z,82.95
2018-11-02T00:32:30.979Z,82.95
2018-11-02T00:33:30.951Z,82.68
2018-11-02T00:34:30.905Z,82.37
2018-11-02T00:35:30.872Z,82.57
2018-11-02T00:36:30.864Z,82.57
2018-11-02T00:37:30.879Z,82.98
2018-11-02T00:38:30.838Z,82.78
2018-11-02T00:39:30.852Z,82.78
2018-11-02T00:40:30.818Z,82.98
2018-11-02T00:41:30.817Z,81.96
2018-11-02T00:42:30.816Z,82.98
2018-11-02T00:43:30.786Z,82.26
2018-11-02T00:44:30.774Z,82.89
2018-11-02T00:45:30.765Z,82.78
2018-11-02T00:46:30.772Z,82.89
2018-11-02T00:47:30.753Z,82.84
2018-11-02T00:48:30.738Z,82.74
2018-11-02T00:49:30.721Z,82.64
2018-11-02T00:50:30.707Z,82.95
2018-11-02T00:51:30.697Z,82.74
2018-11-02T00:52:30.700Z,82.74
2018-11-02T00:53:30.674Z,82.95
2018-11-02T00:54:30.660Z,83.05
2018-11-02T00:55:30.654Z,82.23
2018-11-02T00:56:30.639Z,81.71
2018-11-02T00:57:30.676Z,82.23
2018-11-02T00:58:30.631Z,82.43
2018-11-02T00:59:30.625Z,82.64
2018-11-02T01:00:30.624Z,82.60
2018-11-02T01:01:30.582Z,82.50
2018-11-02T01:02:30.607Z,82.09
2018-11-02T01:03:30.559Z,82.09
2018-11-02T01:04:30.564Z,82.33
2018-11-02T01:05:30.558Z,82.09
2018-11-02T01:06:30.527Z,81.47
2018-11-02T01:07:30.517Z,81.47
2018-11-02T01:08:30.524Z,81.37
2018-11-02T01:09:30.498Z,81.26
2018-11-02T01:10:30.492Z,81.05
2018-11-02T01:11:30.479Z,81.26
2018-11-02T01:12:30.468Z,81.47
2018-11-02T01:13:30.476Z,80.95
2018-11-02T01:14:30.455Z,80.75
2018-11-02T01:15:30.434Z,80.81
2018-11-02T01:16:30.470Z,80.75
2018-11-02T01:17:30.409Z,80.75
2018-11-02T01:18:30.429Z,81.37
2018-11-02T01:19:30.400Z,81.16
2018-11-02T01:20:30.375Z,81.26
2018-11-02T01:21:30.393Z,80.85
2018-11-02T01:22:30.351Z,80.75
2018-11-02T01:23:30.364Z,81.05
2018-11-02T01:24:30.332Z,80.85
2018-11-02T01:25:30.318Z,80.95
2018-11-02T01:26:30.305Z,81.05
2018-11-02T01:27:30.294Z,80.85
2018-11-02T01:28:30.307Z,80.95
2018-11-02T01:29:30.293Z,80.95
2018-11-02T01:30:30.270Z,81.05
2018-11-02T01:31:30.299Z,80.75
2018-11-02T01:32:30.246Z,81.26
2018-11-02T01:33:30.291Z,80.75
2018-11-02T01:34:30.224Z,81.05
2018-11-02T01:35:30.210Z,80.75
2018-11-02T01:36:30.203Z,80.54
2018-11-02T01:37:30.205Z,80.95
2018-11-02T01:38:30.239Z,81.26
2018-11-02T01:39:30.168Z,81.16
2018-11-02T01:40:30.170Z,81.26
2018-11-02T01:41:30.143Z,81.47
2018-11-02T01:42:30.131Z,81.05
2018-11-02T01:43:30.155Z,81.47
2018-11-02T01:44:30.108Z,81.47
2018-11-02T01:45:30.111Z,81.26
2018-11-02T01:46:30.101Z,81.26
2018-11-02T01:47:30.079Z,81.47
2018-11-02T01:48:30.113Z,81.51
2018-11-02T01:49:30.073Z,81.51
2018-11-02T01:50:30.067Z,81.40
2018-11-02T01:51:30.039Z,81.30
2018-11-02T01:52:30.024Z,81.51
2018-11-02T01:53:30.010Z,81.26
2018-11-02T01:54:30.015Z,81.20
2018-11-02T01:55:29.999Z,81.30
2018-11-02T01:56:29.977Z,81.20
2018-11-02T01:57:29.976Z,81.51
2018-11-02T01:58:29.978Z,81.16
2018-11-02T01:59:29.968Z,81.26
2018-11-02T02:00:29.936Z,81.26
2018-11-02T02:01:29.927Z,81.40
2018-11-02T02:02:29.921Z,81.37
2018-11-02T02:03:29.953Z,81.47
2018-11-02T02:04:29.917Z,81.16
2018-11-02T02:05:29.885Z,81.37
2018-11-02T02:06:29.880Z,81.05
2018-11-02T02:07:29.857Z,80.75
2018-11-02T02:08:29.849Z,80.65
2018-11-02T02:09:29.854Z,80.75
2018-11-02T02:10:29.834Z,81.16
2018-11-02T02:11:29.856Z,80.85
2018-11-02T02:12:29.805Z,81.26
2018-11-02T02:13:29.792Z,81.05
2018-11-02T02:14:29.795Z,80.95
2018-11-02T02:15:29.780Z,80.95
2018-11-02T02:16:29.761Z,80.75
2018-11-02T02:17:29.755Z,81.37
2018-11-02T02:18:29.766Z,81.47
2018-11-02T02:19:29.758Z,80.95
2018-11-02T02:20:29.726Z,81.16
2018-11-02T02:21:29.700Z,80.95
2018-11-02T02:22:29.690Z,81.37
2018-11-02T02:23:29.690Z,81.16
2018-11-02T02:24:29.699Z,81.37
2018-11-02T02:25:29.678Z,80.65
2018-11-02T02:26:29.674Z,81.47
2018-11-02T02:27:29.638Z,81.26
2018-11-02T02:28:29.628Z,81.16
2018-11-02T02:29:29.618Z,81.26
2018-11-02T02:30:29.642Z,81.26
2018-11-02T02:31:29.594Z,81.37
2018-11-02T02:32:29.583Z,80.75
2018-11-02T02:33:29.605Z,80.85
2018-11-02T02:34:29.568Z,80.65
2018-11-02T02:35:29.565Z,80.95
2018-11-02T02:36:29.543Z,81.02
2018-11-02T02:37:29.527Z,80.54
2018-11-02T02:38:29.524Z,80.71
2018-11-02T02:39:29.537Z,80.65
2018-11-02T02:40:29.512Z,81.26
2018-11-02T02:41:29.491Z,80.85
2018-11-02T02:42:29.491Z,80.75
2018-11-02T02:43:29.462Z,80.81
2018-11-02T02:44:29.460Z,80.85
2018-11-02T02:45:29.464Z,81.05
2018-11-02T02:46:29.431Z,81.02
2018-11-02T02:47:29.424Z,80.91
2018-11-02T02:48:29.429Z,80.91
2018-11-02T02:49:29.397Z,81.02
2018-11-02T02:50:29.407Z,81.12
2018-11-02T02:51:29.387Z,80.91
2018-11-02T02:52:29.363Z,80.91
2018-11-02T02:53:29.358Z,81.02
2018-11-02T02:54:29.357Z,81.23
2018-11-02T02:55:29.351Z,81.26
2018-11-02T02:56:29.321Z,80.95
2018-11-02T02:57:29.337Z,80.95
2018-11-02T02:58:29.305Z,80.81
2018-11-02T02:59:29.293Z,80.81
2018-11-02T03:00:29.327Z,80.91
2018-11-02T03:01:29.276Z,80.81
2018-11-02T03:02:29.333Z,80.91
2018-11-02T03:03:29.245Z,81.02
2018-11-02T03:04:29.246Z,80.81
2018-11-02T03:05:29.223Z,80.75
2018-11-02T03:06:29.251Z,80.91
2018-11-02T03:07:29.209Z,81.02
2018-11-02T03:08:29.191Z,81.05
2018-11-02T03:09:29.181Z,80.65
2018-11-02T03:10:29.207Z,81.12
2018-11-02T03:11:29.188Z,81.16
2018-11-02T03:12:29.148Z,81.23
2018-11-02T03:13:29.145Z,81.12
2018-11-02T03:14:29.122Z,81.37
2018-11-02T03:15:29.126Z,81.43
2018-11-02T03:16:29.122Z,81.63
2018-11-02T03:17:29.142Z,81.74
2018-11-02T03:18:29.130Z,81.43
2018-11-02T03:19:29.143Z,81.53
2018-11-02T03:20:29.065Z,81.43
2018-11-02T03:21:29.070Z,81.02
2018-11-02T03:22:29.169Z,81.43
2018-11-02T03:23:29.029Z,81.33
2018-11-02T03:24:29.015Z,81.43
2018-11-02T03:25:29.016Z,81.12
2018-11-02T03:26:29.015Z,81.33
2018-11-02T03:27:28.989Z,81.43
2018-11-02T03:28:28.988Z,81.43
2018-11-02T03:29:28.960Z,81.23
2018-11-02T03:30:28.950Z,81.43
2018-11-02T03:31:28.961Z,81.63
2018-11-02T03:32:28.978Z,81.33
2018-11-02T03:33:28.919Z,81.43
2018-11-02T03:34:28.908Z,81.74
2018-11-02T03:35:28.903Z,81.53
2018-11-02T03:36:28.909Z,81.43
2018-11-02T03:37:28.883Z,81.37
2018-11-02T03:38:28.884Z,81.37
2018-11-02T03:39:28.849Z,81.53
2018-11-02T03:40:28.842Z,82.19
2018-11-02T03:41:28.859Z,81.23
2018-11-02T03:42:28.829Z,81.47
2018-11-02T03:43:28.832Z,81.67
2018-11-02T03:44:28.800Z,81.74
2018-11-02T03:45:28.791Z,81.57
2018-11-02T03:46:28.785Z,81.74
2018-11-02T03:47:28.791Z,81.63
2018-11-02T03:48:28.760Z,81.33
2018-11-02T03:49:28.741Z,81.23
2018-11-02T03:50:28.782Z,81.33
2018-11-02T03:51:28.722Z,80.91
2018-11-02T03:52:28.731Z,80.65
2018-11-02T03:53:28.708Z,80.65
2018-11-02T03:54:28.699Z,81.12
2018-11-02T03:55:28.681Z,81.47
2018-11-02T03:56:28.734Z,81.37
2018-11-02T03:57:28.674Z,81.26
2018-11-02T03:58:28.654Z,81.47
2018-11-02T03:59:28.684Z,81.16
2018-11-02T04:00:28.632Z,81.47
2018-11-02T04:01:28.611Z,81.43
2018-11-02T04:02:28.641Z,81.26
2018-11-02T04:03:28.631Z,81.23
2018-11-02T04:04:28.582Z,81.67
2018-11-02T04:05:28.581Z,81.67
2018-11-02T04:06:28.584Z,81.43
2018-11-02T04:07:28.585Z,81.43
2018-11-02T04:08:28.538Z,81.43
2018-11-02T04:09:28.648Z,81.23
2018-11-02T04:10:28.549Z,81.23
2018-11-02T04:11:28.509Z,81.53
2018-11-02T04:12:28.511Z,81.43
2018-11-02T04:13:28.485Z,81.12
2018-11-02T04:14:28.468Z,81.23
2018-11-02T04:15:28.472Z,81.12
2018-11-02T04:16:28.448Z,81.43
2018-11-02T04:17:28.459Z,81.43
2018-11-02T04:18:28.451Z,81.33
2018-11-02T04:19:28.413Z,81.53
2018-11-02T04:20:28.408Z,81.43
2018-11-02T04:21:28.398Z,81.23
2018-11-02T04:22:28.419Z,81.43
2018-11-02T04:23:28.375Z,81.43
2018-11-02T04:24:28.365Z,81.63
2018-11-02T04:25:28.348Z,81.43
2018-11-02T04:26:28.338Z,81.43
2018-11-02T04:27:28.337Z,81.74
2018-11-02T04:28:28.340Z,81.74
2018-11-02T04:29:28.317Z,81.23
2018-11-02T04:30:28.293Z,81.33
2018-11-02T04:31:28.282Z,81.23
2018-11-02T04:32:28.271Z,81.63
2018-11-02T04:33:28.310Z,81.43
2018-11-02T04:34:28.258Z,81.43
2018-11-02T04:35:28.237Z,81.23
2018-11-02T04:36:28.227Z,81.39
2018-11-02T04:37:28.225Z,81.39
2018-11-02T04:38:28.225Z,81.02
2018-11-02T04:39:28.192Z,81.19
2018-11-02T04:40:28.188Z,81.39
2018-11-02T04:41:28.174Z,81.39
2018-11-02T04:42:28.168Z,81.23
2018-11-02T04:43:28.223Z,81.23
2018-11-02T04:44:28.150Z,80.91
2018-11-02T04:45:28.176Z,81.02
2018-11-02T04:46:28.118Z,81.33
2018-11-02T04:47:28.119Z,80.81
2018-11-02T04:48:28.112Z,81.33
2018-11-02T04:49:28.101Z,81.33
2018-11-02T04:50:28.107Z,81.43
2018-11-02T04:51:28.065Z,81.53
2018-11-02T04:52:28.057Z,81.33
2018-11-02T04:53:28.065Z,81.43
2018-11-02T04:54:28.029Z,81.53
2018-11-02T04:55:28.016Z,81.23
2018-11-02T04:56:28.008Z,81.53
2018-11-02T04:57:27.995Z,81.33
2018-11-02T04:58:28.026Z,81.12
2018-11-02T04:59:27.982Z,81.23
2018-11-02T05:00:27.965Z,81.43
2018-11-02T05:01:27.955Z,81.43
2018-11-02T05:02:27.982Z,81.12
2018-11-02T05:03:27.964Z,81.12
2018-11-02T05:04:27.927Z,81.43
2018-11-02T05:05:27.922Z,81.43
2018-11-02T05:06:27.933Z,81.33
2018-11-02T05:07:27.884Z,81.43
2018-11-02T05:08:27.875Z,81.23
2018-11-02T05:09:27.925Z,81.53
2018-11-02T05:10:27.864Z,81.33
2018-11-02T05:11:28.050Z,81.63
2018-11-02T05:12:27.839Z,81.33
2018-11-02T05:13:27.818Z,81.43
2018-11-02T05:14:27.836Z,81.53
2018-11-02T05:15:27.813Z,81.43
2018-11-02T05:16:27.790Z,81.53
2018-11-02T05:17:27.790Z,82.09
2018-11-02T05:18:27.763Z,81.12
2018-11-02T05:19:27.783Z,81.84
2018-11-02T05:20:27.760Z,82.40
2018-11-02T05:21:27.861Z,82.25
2018-11-02T05:22:27.733Z,81.84
2018-11-02T05:23:27.734Z,81.33
2018-11-02T05:24:27.721Z,81.33
2018-11-02T05:25:27.700Z,81.43
2018-11-02T05:26:27.713Z,81.37
2018-11-02T05:27:27.676Z,81.77
2018-11-02T05:28:27.663Z,81.33
2018-11-02T05:29:27.675Z,81.26
2018-11-02T05:30:27.657Z,81.98
2018-11-02T05:31:27.634Z,81.88
2018-11-02T05:32:27.629Z,81.77
2018-11-02T05:33:27.607Z,81.98
2018-11-02T05:34:27.618Z,81.98
2018-11-02T05:35:27.582Z,81.77
2018-11-02T05:36:27.572Z,82.29
2018-11-02T05:37:27.574Z,81.98
2018-11-02T05:38:27.549Z,81.88
2018-11-02T05:39:27.628Z,82.09
2018-11-02T05:40:27.547Z,82.50
2018-11-02T05:41:27.525Z,82.50
2018-11-02T05:42:27.510Z,82.09
2018-11-02T05:43:27.495Z,82.60
2018-11-02T05:44:27.496Z,82.19
2018-11-02T05:45:27.471Z,82.50
2018-11-02T05:46:27.466Z,82.70
2018-11-02T05:47:27.632Z,82.60
2018-11-02T05:48:27.465Z,82.50
2018-11-02T05:49:27.450Z,82.09
2018-11-02T05:50:27.422Z,82.81
2018-11-02T05:51:27.434Z,81.98
2018-11-02T05:52:27.418Z,82.29
2018-11-02T05:53:27.392Z,82.09
2018-11-02T05:54:27.508Z,82.09
2018-11-02T05:55:27.365Z,82.09
2018-11-02T05:56:27.364Z,82.29
2018-11-02T05:57:27.338Z,82.81
2018-11-02T05:58:27.355Z,82.91
2018-11-02T05:59:27.359Z,82.74
2018-11-02T06:00:27.338Z,82.74
2018-11-02T06:01:27.348Z,81.88
2018-11-02T06:02:27.287Z,82.91
2018-11-02T06:03:27.277Z,82.64
2018-11-02T06:04:27.259Z,82.29
2018-11-02T06:05:27.278Z,82.81
2018-11-02T06:06:27.256Z,82.60
2018-11-02T06:07:27.274Z,82.23
2018-11-02T06:08:27.234Z,82.84
2018-11-02T06:09:27.211Z,82.60
2018-11-02T06:10:27.213Z,82.29
2018-11-02T06:11:27.212Z,82.81
2018-11-02T06:12:27.173Z,82.70
2018-11-02T06:13:27.216Z,82.91
2018-11-02T06:14:27.153Z,82.50
2018-11-02T06:15:27.181Z,82.19
2018-11-02T06:16:27.133Z,82.91
2018-11-02T06:17:27.126Z,82.81
2018-11-02T06:18:27.107Z,82.70
2018-11-02T06:19:27.105Z,82.29
2018-11-02T06:20:27.108Z,82.81
2018-11-02T06:21:27.073Z,82.70
2018-11-02T06:22:27.065Z,82.60
2018-11-02T06:23:27.057Z,82.23
2018-11-02T06:24:27.093Z,82.60
2018-11-02T06:25:27.172Z,82.81
2018-11-02T06:26:27.016Z,82.91
2018-11-02T06:27:27.025Z,82.91
2018-11-02T06:28:26.994Z,83.01
2018-11-02T06:29:26.984Z,82.09
2018-11-02T06:30:27.030Z,82.09
2018-11-02T06:31:26.961Z,81.98
2018-11-02T06:32:27.008Z,81.98
2018-11-02T06:33:26.971Z,81.98
2018-11-02T06:34:26.934Z,81.98
2018-11-02T06:35:26.955Z,82.50
2018-11-02T06:36:26.909Z,82.81
2018-11-02T06:37:26.898Z,82.50
2018-11-02T06:38:26.924Z,82.67
2018-11-02T06:39:26.887Z,82.67
2018-11-02T06:40:26.899Z,82.81
2018-11-02T06:41:26.861Z,82.67
2018-11-02T06:42:26.873Z,82.25
2018-11-02T06:43:26.831Z,82.56
2018-11-02T06:44:26.824Z,82.56
2018-11-02T06:45:26.829Z,81.74
2018-11-02T06:46:26.847Z,82.67
2018-11-02T06:47:26.789Z,82.56
2018-11-02T06:48:26.818Z,82.77
2018-11-02T06:49:26.793Z,82.67
2018-11-02T06:50:26.762Z,82.56
2018-11-02T06:51:26.806Z,82.15
2018-11-02T06:52:26.759Z,81.95
2018-11-02T06:53:26.726Z,81.63
2018-11-02T06:54:26.735Z,81.70
2018-11-02T06:55:26.726Z,81.84
2018-11-02T06:56:26.691Z,81.84
2018-11-02T06:57:26.721Z,81.81
2018-11-02T06:58:26.676Z,82.05
2018-11-02T06:59:26.848Z,81.74
2018-11-02T07:00:26.789Z,81.53
2018-11-02T07:01:26.636Z,81.33
2018-11-02T07:02:26.673Z,81.19
2018-11-02T07:03:26.627Z,81.39
2018-11-02T07:04:26.606Z,81.74
2018-11-02T07:05:26.591Z,81.39
2018-11-02T07:06:26.586Z,81.43
2018-11-02T07:07:26.752Z,81.70
2018-11-02T07:08:26.669Z,81.70
2018-11-02T07:09:26.553Z,81.49
2018-11-02T07:10:26.549Z,81.19
2018-11-02T07:11:26.540Z,81.29
2018-11-02T07:12:26.536Z,81.19
2018-11-02T07:13:26.529Z,81.29
2018-11-02T07:14:26.492Z,81.70
2018-11-02T07:15:26.491Z,81.29
2018-11-02T07:16:26.492Z,81.19
2018-11-02T07:17:26.481Z,81.49
2018-11-02T07:18:26.448Z,81.39
2018-11-02T07:19:26.443Z,81.19
2018-11-02T07:20:26.431Z,81.19
2018-11-02T07:21:26.417Z,81.19
2018-11-02T07:22:27.637Z,81.19
2018-11-02T07:23:26.403Z,80.98
2018-11-02T07:24:26.386Z,80.98
2018-11-02T07:25:26.388Z,80.43
2018-11-02T07:26:26.365Z,80.43
2018-11-02T07:27:26.387Z,80.94
2018-11-02T07:28:26.340Z,80.63
2018-11-02T07:29:26.333Z,80.67
2018-11-02T07:30:26.321Z,80.67
2018-11-02T07:31:26.307Z,80.84
2018-11-02T07:32:26.350Z,80.98
2018-11-02T07:33:26.291Z,80.47
2018-11-02T07:34:26.386Z,80.63
2018-11-02T07:35:26.303Z,80.84
2018-11-02T07:36:26.257Z,80.74
2018-11-02T07:37:26.250Z,81.05
2018-11-02T07:38:26.313Z,81.05
2018-11-02T07:39:26.259Z,80.94
2018-11-02T07:40:26.231Z,80.94
2018-11-02T07:41:26.203Z,81.32
2018-11-02T07:42:26.222Z,80.70
2018-11-02T07:43:26.250Z,80.80
2018-11-02T07:44:26.166Z,80.49
2018-11-02T07:45:26.161Z,80.39
2018-11-02T07:46:26.154Z,79.77
2018-11-02T07:47:26.216Z,79.77
2018-11-02T07:48:26.157Z,79.84
2018-11-02T07:49:26.131Z,79.84
2018-11-02T07:50:26.117Z,79.84
2018-11-02T07:51:26.121Z,79.94
2018-11-02T07:52:26.081Z,79.74
2018-11-02T07:53:26.111Z,79.22
2018-11-02T07:54:26.069Z,79.84
2018-11-02T07:55:26.085Z,79.63
2018-11-02T07:56:26.167Z,79.08
2018-11-02T07:57:26.029Z,79.29
2018-11-02T07:58:26.053Z,79.08
2018-11-02T07:59:26.009Z,78.94
2018-11-02T08:00:26.004Z,78.88
2018-11-02T08:01:25.981Z,78.74
2018-11-02T08:02:25.982Z,78.43
2018-11-02T08:03:25.982Z,78.43
2018-11-02T08:04:25.955Z,78.43
2018-11-02T08:05:25.959Z,78.43
2018-11-02T08:06:25.947Z,78.33
2018-11-02T08:07:25.925Z,77.88
2018-11-02T08:08:25.935Z,77.68
2018-11-02T08:09:25.899Z,77.68
2018-11-02T08:10:25.910Z,78.09
2018-11-02T08:11:25.948Z,78.09
2018-11-02T08:12:25.875Z,78.19
2018-11-02T08:13:25.888Z,78.29
2018-11-02T08:14:25.842Z,77.88
2018-11-02T08:15:25.832Z,77.58
2018-11-02T08:16:25.841Z,77.37
2018-11-02T08:17:25.860Z,77.37
2018-11-02T08:18:25.863Z,77.58
2018-11-02T08:19:25.795Z,77.58
2018-11-02T08:20:25.776Z,77.23
2018-11-02T08:21:25.773Z,77.74
2018-11-02T08:22:25.758Z,77.23
2018-11-02T08:23:25.785Z,77.64
2018-11-02T08:24:25.808Z,77.64
2018-11-02T08:25:25.728Z,77.74
2018-11-02T08:26:25.720Z,77.13
2018-11-02T08:27:25.705Z,77.64
2018-11-02T08:28:25.721Z,76.99
2018-11-02T08:29:25.681Z,76.82
2018-11-02T08:30:25.691Z,77.20
2018-11-02T08:31:25.657Z,76.99
2018-11-02T08:32:25.654Z,76.58
2018-11-02T08:33:25.665Z,76.48
2018-11-02T08:34:25.623Z,76.07
2018-11-02T08:35:25.615Z,76.07
2018-11-02T08:36:25.599Z,76.24
2018-11-02T08:37:25.604Z,75.62
2018-11-02T08:38:25.609Z,75.62
2018-11-02T08:39:25.596Z,75.62
2018-11-02T08:40:25.560Z,75.62
2018-11-02T08:41:25.552Z,75.82
2018-11-02T08:42:25.578Z,75.73
2018-11-02T08:43:25.584Z,75.62
2018-11-02T08:44:25.543Z,75.62
2018-11-02T08:45:25.517Z,75.62
2018-11-02T08:46:25.542Z,75.62
2018-11-02T08:47:25.529Z,75.62
2018-11-02T08:48:25.494Z,75.52
2018-11-02T08:49:25.480Z,75.73
2018-11-02T08:50:25.460Z,75.52
2018-11-02T08:51:25.459Z,75.42
2018-11-02T08:52:25.504Z,75.38
2018-11-02T08:53:25.426Z,75.42
2018-11-02T08:54:25.424Z,75.42
2018-11-02T08:55:25.396Z,75.38
2018-11-02T08:56:25.391Z,75.21
2018-11-02T08:57:25.379Z,75.52
2018-11-02T08:58:25.507Z,75.62
2018-11-02T08:59:25.525Z,75.38
2018-11-02T09:00:25.373Z,75.59
2018-11-02T09:01:25.338Z,75.42
2018-11-02T09:02:25.328Z,75.59
2018-11-02T09:03:25.308Z,75.42
2018-11-02T09:04:25.340Z,75.59
2018-11-02T09:05:25.302Z,75.48
2018-11-02T09:06:25.273Z,75.48
2018-11-02T09:07:25.268Z,75.38
2018-11-02T09:08:25.265Z,75.48
2018-11-02T09:09:25.271Z,75.38
2018-11-02T09:10:25.235Z,75.59
2018-11-02T09:11:25.225Z,75.45
2018-11-02T09:12:25.233Z,75.45
2018-11-02T09:13:25.202Z,75.45
2018-11-02T09:14:25.214Z,75.14
2018-11-02T09:15:25.188Z,75.35
2018-11-02T09:16:25.180Z,75.31
2018-11-02T09:17:25.156Z,75.14
2018-11-02T09:18:25.152Z,75.45
2018-11-02T09:19:25.205Z,75.35
2018-11-02T09:20:25.159Z,75.14
2018-11-02T09:21:25.112Z,75.42
2018-11-02T09:22:25.107Z,75.45
2018-11-02T09:23:25.090Z,74.73
2018-11-02T09:24:25.112Z,75.42
2018-11-02T09:25:25.113Z,75.76
2018-11-02T09:26:25.055Z,75.52
2018-11-02T09:27:25.122Z,75.72
2018-11-02T09:28:25.036Z,75.52
2018-11-02T09:29:25.073Z,75.62
2018-11-02T09:30:25.062Z,75.42
2018-11-02T09:31:25.020Z,75.48
2018-11-02T09:32:24.990Z,74.46
2018-11-02T09:33:24.993Z,74.97
2018-11-02T09:34:24.979Z,74.26
2018-11-02T09:35:24.981Z,74.26
2018-11-02T09:36:24.955Z,74.05
2018-11-02T09:37:24.969Z,73.85
2018-11-02T09:38:24.935Z,74.26
2018-11-02T09:39:24.921Z,74.46
2018-11-02T09:40:24.976Z,74.05
2018-11-02T09:41:24.892Z,73.94
2018-11-02T09:42:24.933Z,73.94
2018-11-02T09:43:24.925Z,74.15
2018-11-02T09:44:24.858Z,74.46
2018-11-02T09:45:24.867Z,74.05
2018-11-02T09:46:24.850Z,74.05
2018-11-02T09:47:24.831Z,74.15
2018-11-02T09:48:24.827Z,74.15
2018-11-02T09:49:24.840Z,74.46
2018-11-02T09:50:24.841Z,74.56
2018-11-02T09:51:24.853Z,74.26
2018-11-02T09:52:24.784Z,74.05
2018-11-02T09:53:24.765Z,74.08
2018-11-02T09:54:24.793Z,74.49
2018-11-02T09:55:24.774Z,73.94
2018-11-02T09:56:24.730Z,73.94
2018-11-02T09:57:24.727Z,74.56
2018-11-02T09:58:24.706Z,74.08
2018-11-02T09:59:24.713Z,74.08
2018-11-02T10:00:24.722Z,74.05
2018-11-02T10:01:24.673Z,73.98
2018-11-02T10:02:24.666Z,74.05
2018-11-02T10:03:24.646Z,73.94
2018-11-02T10:04:24.677Z,73.98
2018-11-02T10:05:24.658Z,74.19
2018-11-02T10:06:24.646Z,74.05
2018-11-02T10:07:24.606Z,74.35
2018-11-02T10:08:24.631Z,74.05
2018-11-02T10:09:24.589Z,73.94
2018-11-02T10:10:24.574Z,73.74
2018-11-02T10:11:24.585Z,74.35
2018-11-02T10:12:24.555Z,73.74
2018-11-02T10:13:25.503Z,73.54
2018-11-02T10:14:24.539Z,73.23
2018-11-02T10:15:24.525Z,73.33
2018-11-02T10:16:24.539Z,74.11
2018-11-02T10:17:24.512Z,73.54
2018-11-02T10:18:24.492Z,73.44
2018-11-02T10:19:24.473Z,73.64
2018-11-02T10:20:24.469Z,73.64
2018-11-02T10:21:24.485Z,73.64
2018-11-02T10:22:24.451Z,73.44
2018-11-02T10:23:24.453Z,73.54
2018-11-02T10:24:24.457Z,73.54
2018-11-02T10:25:24.403Z,73.54
2018-11-02T10:26:24.432Z,73.50
2018-11-02T10:27:24.992Z,73.44
2018-11-02T10:28:24.407Z,73.13
2018-11-02T10:29:24.386Z,73.54
2018-11-02T10:30:24.353Z,73.44
2018-11-02T10:31:24.382Z,73.30
2018-11-02T10:32:24.339Z,73.20
2018-11-02T10:33:24.320Z,73.10
2018-11-02T10:34:24.344Z,73.61
2018-11-02T10:35:24.317Z,72.34
2018-11-02T10:36:24.304Z,73.16
2018-11-02T10:37:24.273Z,72.24
2018-11-02T10:38:24.267Z,72.24
2018-11-02T10:39:24.289Z,72.34
2018-11-02T10:40:24.247Z,72.24
2018-11-02T10:41:24.264Z,72.55
2018-11-02T10:42:24.218Z,72.52
2018-11-02T10:43:24.214Z,72.65
2018-11-02T10:44:24.303Z,72.14
2018-11-02T10:45:24.224Z,72.11
2018-11-02T10:46:24.172Z,71.59
2018-11-02T10:47:24.183Z,71.80
2018-11-02T10:48:24.159Z,71.39
2018-11-02T10:49:24.241Z,71.91
2018-11-02T10:50:24.132Z,71.67
2018-11-02T10:51:24.148Z,71.56
2018-11-02T10:52:24.126Z,71.87
2018-11-02T10:53:24.100Z,71.77
2018-11-02T10:54:24.104Z,71.05
2018-11-02T10:55:24.098Z,71.26
2018-11-02T10:56:24.116Z,70.64
2018-11-02T10:57:24.077Z,70.23
2018-11-02T10:58:24.054Z,70.54
2018-11-02T10:59:24.038Z,70.64
2018-11-02T11:00:24.029Z,70.40
2018-11-02T11:01:24.084Z,70.81
2018-11-02T11:02:24.030Z,70.10
2018-11-02T11:03:23.994Z,70.31
2018-11-02T11:04:24.000Z,69.90
2018-11-02T11:05:24.100Z,69.69
2018-11-02T11:06:23.956Z,69.56
2018-11-02T11:07:23.983Z,69.46
2018-11-02T11:08:23.936Z,68.84
2018-11-02T11:09:23.929Z,69.25
2018-11-02T11:10:23.911Z,68.74
2018-11-02T11:11:23.916Z,68.95
2018-11-02T11:12:24.130Z,69.15
2018-11-02T11:13:24.208Z,68.95
2018-11-02T11:14:23.873Z,68.95
2018-11-02T11:15:23.857Z,68.95
2018-11-02T11:16:23.852Z,68.95
2018-11-02T11:17:23.854Z,68.81
2018-11-02T11:18:23.822Z,68.71
2018-11-02T11:19:23.818Z,68.91
2018-11-02T11:20:23.836Z,68.51
2018-11-02T11:21:23.925Z,68.20
2018-11-02T11:22:23.808Z,68.81
2018-11-02T11:23:23.770Z,68.51
2018-11-02T11:24:23.779Z,68.10
2018-11-02T11:25:23.764Z,67.79
2018-11-02T11:26:23.735Z,66.88
2018-11-02T11:27:23.769Z,67.90
2018-11-02T11:28:23.729Z,67.08
2018-11-02T11:29:23.794Z,67.08
2018-11-02T11:30:23.700Z,66.33
2018-11-02T11:31:23.685Z,65.72
2018-11-02T11:32:23.694Z,65.62
2018-11-02T11:33:23.682Z,66.13
2018-11-02T11:34:23.657Z,66.33
2018-11-02T11:35:23.635Z,66.13
2018-11-02T11:36:23.632Z,66.54
2018-11-02T11:37:23.639Z,66.64
2018-11-02T11:38:23.629Z,66.33
2018-11-02T11:39:23.612Z,65.52
2018-11-02T11:40:23.603Z,65.62
2018-11-02T11:41:23.586Z,65.31
2018-11-02T11:42:23.561Z,65.42
2018-11-02T11:43:23.573Z,64.60
2018-11-02T11:44:23.547Z,65.19
2018-11-02T11:45:23.544Z,64.67
2018-11-02T11:46:23.522Z,65.11
2018-11-02T11:47:23.517Z,65.22
2018-11-02T11:48:23.597Z,64.50
2018-11-02T11:49:23.486Z,65.31
2018-11-02T11:50:23.478Z,65.08
2018-11-02T11:51:23.471Z,64.47
2018-11-02T11:52:23.450Z,64.60
2018-11-02T11:53:23.471Z,64.60
2018-11-02T11:54:23.488Z,64.70
2018-11-02T11:55:23.421Z,65.31
2018-11-02T11:56:23.417Z,65.22
2018-11-02T11:57:23.403Z,65.72
2018-11-02T11:58:23.422Z,65.31
2018-11-02T11:59:23.376Z,64.60
2018-11-02T12:00:23.380Z,64.29
2018-11-02T12:01:23.364Z,65.01
2018-11-02T12:02:23.416Z,65.22
2018-11-02T12:03:23.350Z,65.01
2018-11-02T12:04:23.372Z,64.90
2018-11-02T12:05:23.312Z,64.70
2018-11-02T12:06:23.303Z,64.57
2018-11-02T12:07:23.291Z,64.09
2018-11-02T12:08:23.305Z,64.26
2018-11-02T12:09:23.290Z,64.26
2018-11-02T12:10:23.364Z,62.63
2018-11-02T12:11:23.252Z,63.76
2018-11-02T12:12:23.260Z,62.94
2018-11-02T12:13:23.228Z,62.74
2018-11-02T12:14:23.252Z,62.84
2018-11-02T12:15:23.219Z,62.84
2018-11-02T12:16:23.216Z,63.56
2018-11-02T12:17:23.211Z,62.51
2018-11-02T12:18:23.182Z,62.71
2018-11-02T12:19:23.203Z,62.71
2018-11-02T12:20:23.157Z,62.92
2018-11-02T12:21:23.144Z,62.54
2018-11-02T12:22:23.141Z,62.30
2018-11-02T12:23:23.144Z,62.10
2018-11-02T12:24:23.134Z,62.30
2018-11-02T12:25:23.102Z,62.51
2018-11-02T12:26:23.081Z,61.90
2018-11-02T12:27:23.071Z,62.71
2018-11-02T12:28:23.247Z,61.79
2018-11-02T12:29:23.080Z,61.38
2018-11-02T12:30:23.041Z,61.49
2018-11-02T12:31:23.037Z,61.90
2018-11-02T12:32:23.031Z,61.49
2018-11-02T12:33:23.019Z,61.29
2018-11-02T12:34:23.013Z,61.69
2018-11-02T12:35:23.003Z,61.90
2018-11-02T12:36:23.008Z,61.29
2018-11-02T12:37:22.965Z,61.18
2018-11-02T12:38:22.951Z,61.38
2018-11-02T12:39:22.961Z,61.59
2018-11-02T12:40:22.934Z,61.29
2018-11-02T12:41:22.945Z,61.18
2018-11-02T12:42:22.909Z,61.49
2018-11-02T12:43:22.995Z,60.47
2018-11-02T12:44:22.918Z,60.68
2018-11-02T12:45:22.877Z,60.57
2018-11-02T12:46:22.869Z,60.88
2018-11-02T12:47:22.856Z,61.36
2018-11-02T12:48:23.020Z,60.88
2018-11-02T12:49:23.192Z,60.47
2018-11-02T12:50:22.996Z,60.47
2018-11-02T12:51:22.811Z,60.16
2018-11-02T12:52:22.810Z,60.06